Time;durP1;ratioP1;P1;durP2;ratioP2;P2;SDS_P1;SDS_P2;PMS_P1;PMS_P2;Temp;Humidity;BMP_temperature;BMP_pressure;BME280_temperature;BME280_humidity;BME280_pressure;Samples;Min_cycle;Max_cycle;Signal;HPM_P1;HPM_P2
2021/04/26 00:00:22;;;;;;;2.50;2.30;;;;;;;5.09;43.43;101879.69;660951;29;22434;-66
2021/04/26 00:00:43;;;;;;;2.25;2.15;;;;;;;5.08;43.53;101883.38;660587;29;29470;-65
2021/04/26 00:01:05;;;;;;;2.50;2.30;;;;;;;5.05;43.74;101880.91;660207;29;40767;-65
2021/04/26 00:01:26;;;;;;;2.80;2.15;;;;;;;5.05;43.56;101878.25;659913;29;46322;-65
2021/04/26 00:01:49;;;;;;;2.88;2.30;;;;;;;5.05;43.52;101879.09;660972;29;23518;-65
2021/04/26 00:02:10;;;;;;;3.10;2.25;;;;;;;5.06;43.59;101879.94;659964;29;44103;-65
2021/04/26 00:02:31;;;;;;;2.92;2.40;;;;;;;5.04;43.43;101882.72;660900;29;22411;-65
2021/04/26 00:02:52;;;;;;;2.10;2.00;;;;;;;5.04;43.70;101882.72;659880;29;45343;-65
2021/04/26 00:03:14;;;;;;;2.60;2.20;;;;;;;5.06;43.44;101879.94;662288;29;1396;-65
2021/04/26 00:03:36;;;;;;;2.60;2.40;;;;;;;5.04;43.66;101877.34;661604;29;12918;-65
2021/04/26 00:03:58;;;;;;;2.33;2.10;;;;;;;5.02;43.56;101886.50;661390;29;12142;-65
2021/04/26 00:04:19;;;;;;;4.10;2.45;;;;;;;5.02;43.72;101881.13;661113;29;29731;-65
2021/04/26 00:04:40;;;;;;;2.83;2.20;;;;;;;4.99;43.59;101884.88;661466;29;5045;-64
2021/04/26 00:05:01;;;;;;;2.70;2.22;;;;;;;4.98;43.78;101879.63;660658;29;22399;-65
2021/04/26 00:05:23;;;;;;;2.72;2.10;;;;;;;4.96;43.92;101879.75;659846;29;47361;-65
2021/04/26 00:05:44;;;;;;;3.10;2.00;;;;;;;4.94;43.89;101887.06;661371;29;1686;-65
2021/04/26 00:06:05;;;;;;;2.10;1.90;;;;;;;4.93;43.92;101879.97;659820;29;21664;-65
2021/04/26 00:06:26;;;;;;;2.60;2.15;;;;;;;4.93;44.03;101873.78;660857;29;1068;-65
2021/04/26 00:06:48;;;;;;;2.97;2.25;;;;;;;4.92;44.00;101875.63;662187;29;22216;-65
2021/04/26 00:07:09;;;;;;;3.08;2.40;;;;;;;4.91;44.15;101881.06;662329;29;9845;-65
2021/04/26 00:07:30;;;;;;;2.67;2.10;;;;;;;4.90;44.17;101882.03;662543;29;16435;-64
2021/04/26 00:07:51;;;;;;;2.70;2.00;;;;;;;4.90;43.93;101877.53;662173;29;23387;-65
2021/04/26 00:08:13;;;;;;;3.78;2.30;;;;;;;4.88;44.41;101874.13;662593;29;40406;-64
2021/04/26 00:08:34;;;;;;;2.67;2.47;;;;;;;4.87;44.26;101875.94;663353;29;10547;-65
2021/04/26 00:08:56;;;;;;;2.70;2.45;;;;;;;4.88;44.10;101874.13;662695;29;17179;-66
2021/04/26 00:09:17;;;;;;;4.25;2.40;;;;;;;4.87;44.14;101875.94;660842;29;35563;-65
2021/04/26 00:09:38;;;;;;;3.40;2.20;;;;;;;4.84;44.15;101876.16;661034;29;24520;-64
2021/04/26 00:09:59;;;;;;;3.83;2.30;;;;;;;4.85;44.16;101877.00;662580;29;46323;-65
2021/04/26 00:10:21;;;;;;;3.03;2.17;;;;;;;4.85;43.96;101877.84;664413;29;1067;-65
2021/04/26 00:10:42;;;;;;;2.35;2.10;;;;;;;4.87;43.99;101875.06;662808;29;40042;-64
2021/04/26 00:11:04;;;;;;;4.05;2.50;;;;;;;4.88;44.11;101877.63;660697;29;21001;-65
2021/04/26 00:11:25;;;;;;;3.55;2.53;;;;;;;4.87;43.99;101881.31;660855;29;23454;-65
2021/04/26 00:11:46;;;;;;;2.83;2.30;;;;;;;4.86;44.22;101873.38;660701;29;23503;-64
2021/04/26 00:12:08;;;;;;;3.65;2.60;;;;;;;4.82;44.45;101874.56;659936;29;44382;-65
2021/04/26 00:12:29;;;;;;;2.63;2.40;;;;;;;4.81;44.39;101876.38;660951;29;21470;-65
2021/04/26 00:12:50;;;;;;;2.92;2.25;;;;;;;4.76;44.72;101867.81;660143;29;46140;-65
2021/04/26 00:13:12;;;;;;;3.20;2.60;;;;;;;4.79;44.52;101872.94;660977;29;22497;-65
2021/04/26 00:13:33;;;;;;;3.33;2.33;;;;;;;4.76;44.72;101875.84;661329;29;22392;-65
2021/04/26 00:13:54;;;;;;;4.32;2.60;;;;;;;4.74;44.94;101874.25;661780;29;1540;-65
2021/04/26 00:14:15;;;;;;;4.78;2.83;;;;;;;4.74;44.73;101877.78;660943;29;35304;-65
2021/04/26 00:14:37;;;;;;;3.85;2.60;;;;;;;4.73;45.04;101881.41;661308;29;22443;-65
2021/04/26 00:14:58;;;;;;;3.60;2.58;;;;;;;4.71;45.06;101874.50;661248;29;21488;-65
2021/04/26 00:15:20;;;;;;;4.10;3.30;;;;;;;4.69;45.18;101875.44;661263;29;22332;-65
2021/04/26 00:15:43;;;;;;;4.20;2.95;;;;;;;4.69;45.26;101878.13;659480;29;66270;-65
2021/04/26 00:16:04;;;;;;;4.43;2.67;;;;;;;4.68;45.29;101873.72;662629;29;29276;-65
2021/04/26 00:16:25;;;;;;;5.70;3.00;;;;;;;4.68;45.44;101880.91;662752;29;43909;-65
2021/04/26 00:16:47;;;;;;;4.35;2.90;;;;;;;4.68;45.30;101873.72;663751;29;9726;-64
2021/04/26 00:17:08;;;;;;;4.28;2.70;;;;;;;4.65;45.00;101873.94;663039;29;22467;-65
2021/04/26 00:17:29;;;;;;;4.95;2.83;;;;;;;4.69;44.96;101875.44;662754;29;46340;-65
2021/04/26 00:17:51;;;;;;;3.80;2.55;;;;;;;4.71;44.89;101882.53;663240;29;22221;-65
2021/04/26 00:18:13;;;;;;;4.28;2.50;;;;;;;4.68;44.88;101876.41;661947;29;16945;-65
2021/04/26 00:18:34;;;;;;;3.42;2.72;;;;;;;4.68;44.68;101875.56;661529;29;46362;-65
2021/04/26 00:18:55;;;;;;;4.28;2.70;;;;;;;4.67;44.84;101874.72;660944;29;37997;-65
2021/04/26 00:19:20;;;;;;;4.95;2.78;;;;;;;4.67;44.73;101871.16;661888;29;14303;-65
2021/04/26 00:19:41;;;;;;;4.25;2.85;;;;;;;4.68;44.77;101872.88;661137;29;22394;-64
2021/04/26 00:20:05;;;;;;;3.65;2.88;;;;;;;4.68;44.87;101875.56;662137;29;14678;-65
2021/04/26 00:20:31;;;;;;;4.07;2.78;;;;;;;4.67;44.78;101873.84;658141;29;106620;-64
2021/04/26 00:20:52;;;;;;;3.78;2.72;;;;;;;4.68;44.75;101873.72;658056;29;110627;-63
2021/04/26 00:21:13;;;;;;;4.35;2.67;;;;;;;4.68;44.59;101875.56;661610;29;14443;-64
2021/04/26 00:21:34;;;;;;;3.17;2.67;;;;;;;4.67;44.42;101872.03;661287;29;6992;-64
2021/04/26 00:21:55;;;;;;;3.53;2.67;;;;;;;4.68;44.48;101871.03;661384;29;8674;-64
2021/04/26 00:22:17;;;;;;;3.30;2.60;;;;;;;4.69;44.48;101869.25;660763;29;23453;-61
2021/04/26 00:22:38;;;;;;;3.25;2.70;;;;;;;4.71;44.38;101879.84;661164;29;17110;-63
2021/04/26 00:23:02;;;;;;;2.90;2.60;;;;;;;4.67;44.48;101863.13;661433;29;34749;-64
2021/04/26 00:23:23;;;;;;;4.03;2.97;;;;;;;4.72;44.35;101874.38;661075;29;84752;-64
2021/04/26 00:23:44;;;;;;;5.00;3.03;;;;;;;4.69;44.68;101872.75;663528;29;18388;-64
2021/04/26 00:24:08;;;;;;;4.70;2.70;;;;;;;4.69;44.35;101875.44;664081;29;6892;-63
2021/04/26 00:24:29;;;;;;;5.22;2.90;;;;;;;4.71;44.44;101877.16;661904;29;69449;-63
2021/04/26 00:24:51;;;;;;;4.70;2.70;;;;;;;4.71;44.28;101877.16;664336;29;1037;-64
2021/04/26 00:25:13;;;;;;;3.55;2.50;;;;;;;4.71;44.62;101874.50;664405;29;871;-66
2021/04/26 00:25:34;;;;;;;3.42;2.80;;;;;;;4.73;44.31;101869.88;663694;29;14916;-62
2021/04/26 00:25:55;;;;;;;3.65;2.75;;;;;;;4.72;44.24;101869.03;664022;29;879;-63
2021/04/26 00:26:16;;;;;;;3.22;2.92;;;;;;;4.69;44.63;101867.41;664077;29;7140;-64
2021/04/26 00:26:38;;;;;;;4.03;2.80;;;;;;;4.69;44.64;101875.44;663954;29;6694;-62
2021/04/26 00:26:59;;;;;;;3.83;2.75;;;;;;;4.69;44.39;101869.25;663362;29;24317;-63
2021/04/26 00:27:20;;;;;;;4.05;2.65;;;;;;;4.70;44.58;101870.94;663964;29;1804;-63
2021/04/26 00:27:42;;;;;;;4.28;3.00;;;;;;;4.69;44.50;101867.41;663490;29;21310;-63
2021/04/26 00:28:03;;;;;;;4.15;2.90;;;;;;;4.64;44.87;101871.38;663135;29;41514;-63
2021/04/26 00:28:25;;;;;;;4.43;3.10;;;;;;;4.64;44.93;101874.94;663428;29;19104;-64
2021/04/26 00:28:46;;;;;;;4.10;3.10;;;;;;;4.62;45.10;101873.31;662833;29;23459;-63
2021/04/26 00:29:07;;;;;;;3.60;2.92;;;;;;;4.61;44.84;101872.47;663146;29;36290;-64
2021/04/26 00:29:28;;;;;;;4.30;3.30;;;;;;;4.60;45.14;101868.06;662936;29;21516;-63
2021/04/26 00:29:49;;;;;;;4.85;3.40;;;;;;;4.58;45.04;101869.16;663296;29;22293;-64
2021/04/26 00:30:13;;;;;;;5.13;3.13;;;;;;;4.56;45.31;101869.28;663580;29;20880;-61
2021/04/26 00:30:34;;;;;;;4.50;2.92;;;;;;;4.55;45.40;101870.22;661181;29;88317;-63
2021/04/26 00:30:55;;;;;;;3.92;2.80;;;;;;;4.53;45.58;101872.19;663331;29;23491;-63
2021/04/26 00:31:16;;;;;;;4.07;3.08;;;;;;;4.53;45.54;101877.53;662977;29;23590;-64
2021/04/26 00:31:38;;;;;;;5.07;3.20;;;;;;;4.52;45.36;101873.13;663814;29;1115;-63
2021/04/26 00:31:59;;;;;;;3.90;3.05;;;;;;;4.50;45.65;101873.25;663226;29;18891;-64
2021/04/26 00:32:20;;;;;;;3.10;2.80;;;;;;;4.50;45.67;101867.03;662349;29;46354;-63
2021/04/26 00:32:41;;;;;;;4.13;3.10;;;;;;;4.52;45.45;101870.47;663533;29;23428;-63
2021/04/26 00:33:03;;;;;;;3.28;2.72;;;;;;;4.51;45.23;101861.59;663385;29;22445;-64
2021/04/26 00:33:24;;;;;;;2.92;2.63;;;;;;;4.53;45.19;101866.81;663875;29;14731;-62
2021/04/26 00:33:45;;;;;;;3.55;2.80;;;;;;;4.53;45.29;101866.81;663190;29;37434;-64
2021/04/26 00:34:06;;;;;;;3.20;2.88;;;;;;;4.54;45.14;101870.34;659665;29;21505;-64
2021/04/26 00:34:27;;;;;;;5.00;2.90;;;;;;;4.53;45.30;101868.63;660435;29;5866;-63
2021/04/26 00:34:48;;;;;;;3.53;3.00;;;;;;;4.51;45.38;101874.09;659248;29;23416;-63
2021/04/26 00:35:11;;;;;;;4.45;2.90;;;;;;;4.48;45.61;101863.59;659614;29;21542;-62
2021/04/26 00:35:32;;;;;;;5.38;3.20;;;;;;;4.46;45.73;101863.72;658928;29;61529;-66
2021/04/26 00:35:53;;;;;;;3.20;2.83;;;;;;;4.45;45.72;101871.84;660632;29;21125;-64
2021/04/26 00:36:15;;;;;;;3.88;2.78;;;;;;;4.45;46.04;101869.16;664311;29;1338;-63
2021/04/26 00:36:36;;;;;;;3.15;2.83;;;;;;;4.44;45.91;101862.13;662944;29;46431;-63
2021/04/26 00:36:57;;;;;;;3.20;2.83;;;;;;;4.45;45.74;101864.69;663767;29;12999;-64
2021/04/26 00:37:18;;;;;;;2.83;2.60;;;;;;;4.44;45.64;101868.31;663412;29;21999;-64
2021/04/26 00:37:40;;;;;;;2.85;2.60;;;;;;;4.44;45.43;101862.97;663658;29;24591;-63
2021/04/26 00:38:01;;;;;;;2.60;2.38;;;;;;;4.43;45.38;101865.75;662995;29;46629;-63
2021/04/26 00:38:22;;;;;;;2.17;2.00;;;;;;;4.45;45.33;101864.69;663204;29;22425;-61
2021/04/26 00:38:43;;;;;;;2.30;2.10;;;;;;;4.46;45.34;101865.53;664444;29;894;-62
2021/04/26 00:39:04;;;;;;;2.72;2.28;;;;;;;4.46;45.28;101863.72;663322;29;23447;-62
2021/04/26 00:39:27;;;;;;;3.30;2.35;;;;;;;4.46;45.09;101874.41;662792;29;23782;-63
2021/04/26 00:39:48;;;;;;;2.47;2.28;;;;;;;4.46;45.24;101862.88;662673;29;46005;-63
2021/04/26 00:40:10;;;;;;;2.38;2.17;;;;;;;4.46;45.39;101869.06;664427;29;20774;-64
2021/04/26 00:40:31;;;;;;;2.40;2.20;;;;;;;4.46;45.31;101868.22;662679;29;45687;-64
2021/04/26 00:40:53;;;;;;;2.22;2.10;;;;;;;4.44;45.13;101857.63;663774;29;23469;-64
2021/04/26 00:41:14;;;;;;;2.45;2.25;;;;;;;4.46;45.13;101860.19;662804;29;41184;-65
2021/04/26 00:41:35;;;;;;;3.10;2.40;;;;;;;4.47;45.29;101869.94;663476;29;19475;-65
2021/04/26 00:41:56;;;;;;;3.95;2.47;;;;;;;4.47;45.26;101864.59;663876;29;16420;-64
2021/04/26 00:42:17;;;;;;;4.38;2.38;;;;;;;4.47;45.23;101861.91;663250;29;21511;-63
2021/04/26 00:42:40;;;;;;;3.38;2.60;;;;;;;4.47;45.35;101865.44;663265;29;22416;-65
2021/04/26 00:43:03;;;;;;;2.70;2.50;;;;;;;4.47;45.32;101864.59;660131;29;115947;-64
2021/04/26 00:43:24;;;;;;;2.40;2.22;;;;;;;4.48;45.33;101859.13;663815;29;14872;-64
2021/04/26 00:43:45;;;;;;;2.85;2.60;;;;;;;4.49;45.35;101863.50;663624;29;23456;-64
2021/04/26 00:44:07;;;;;;;3.15;2.50;;;;;;;4.49;45.38;101866.16;663402;29;23509;-65
2021/04/26 00:44:28;;;;;;;3.00;2.42;;;;;;;4.47;45.33;101859.25;662836;29;45249;-64
2021/04/26 00:44:49;;;;;;;2.60;2.30;;;;;;;4.48;45.28;101861.81;663530;29;21454;-64
2021/04/26 00:45:12;;;;;;;2.30;2.10;;;;;;;4.48;45.31;101861.81;663825;29;22227;-65
2021/04/26 00:45:34;;;;;;;2.17;1.98;;;;;;;4.46;45.28;101861.03;661719;29;69238;-64
2021/04/26 00:45:55;;;;;;;3.47;2.30;;;;;;;4.47;45.25;101861.91;663478;29;30138;-65
2021/04/26 00:46:16;;;;;;;3.05;2.05;;;;;;;4.47;45.23;101864.59;663411;29;22404;-65
2021/04/26 00:46:37;;;;;;;3.17;2.00;;;;;;;4.47;45.26;101867.25;663531;29;21512;-64
2021/04/26 00:46:59;;;;;;;3.05;2.20;;;;;;;4.47;45.25;101861.91;663797;29;12836;-64
2021/04/26 00:47:20;;;;;;;2.60;2.00;;;;;;;4.48;45.07;101855.56;662956;29;35884;-64
2021/04/26 00:47:43;;;;;;;2.13;1.92;;;;;;;4.47;45.18;101856.56;661971;29;46365;-64
2021/04/26 00:48:05;;;;;;;1.90;1.80;;;;;;;4.45;45.23;101858.47;661984;29;35991;-64
2021/04/26 00:48:28;;;;;;;3.40;2.20;;;;;;;4.43;45.35;101858.56;663630;29;4160;-64
2021/04/26 00:48:49;;;;;;;2.05;1.85;;;;;;;4.43;45.52;101865.75;662451;29;46459;-65
2021/04/26 00:49:10;;;;;;;2.20;2.00;;;;;;;4.42;45.33;101854.22;663488;29;22423;-65
2021/04/26 00:49:31;;;;;;;2.55;2.17;;;;;;;4.39;45.67;101861.56;662501;29;23488;-63
2021/04/26 00:49:52;;;;;;;2.28;2.08;;;;;;;4.38;45.73;101851.88;663388;29;18072;-63
2021/04/26 00:50:16;;;;;;;2.75;1.77;;;;;;;4.39;45.73;101858.91;663988;29;13240;-66
2021/04/26 00:50:40;;;;;;;1.77;1.63;;;;;;;4.39;45.59;101858.91;659608;29;118856;-64
2021/04/26 00:51:04;;;;;;;2.65;2.17;;;;;;;4.39;45.36;101858.91;660452;29;115055;-64
2021/04/26 00:51:25;;;;;;;3.08;2.40;;;;;;;4.33;45.59;101858.38;663444;29;23268;-65
2021/04/26 00:51:47;;;;;;;2.78;2.28;;;;;;;4.31;45.69;101854.09;663621;29;22414;-64
2021/04/26 00:52:08;;;;;;;2.25;2.05;;;;;;;4.30;45.81;101857.75;662833;29;45523;-65
2021/04/26 00:52:29;;;;;;;2.20;2.00;;;;;;;4.31;45.72;101854.09;663426;29;21382;-65
2021/04/26 00:52:53;;;;;;;2.97;2.10;;;;;;;4.28;45.75;101851.66;663007;29;22402;-65
2021/04/26 00:53:14;;;;;;;3.33;1.98;;;;;;;4.28;45.81;101849.84;660543;29;90616;-64
2021/04/26 00:53:35;;;;;;;2.25;1.92;;;;;;;4.28;45.72;101852.50;663245;29;20795;-64
2021/04/26 00:53:57;;;;;;;1.73;1.63;;;;;;;4.24;45.67;101851.00;663053;29;21379;-65
2021/04/26 00:54:19;;;;;;;2.00;1.80;;;;;;;4.22;45.89;101850.28;661826;29;69315;-65
2021/04/26 00:54:42;;;;;;;2.10;1.90;;;;;;;4.22;46.00;101844.09;663670;29;16784;-64
2021/04/26 00:55:05;;;;;;;2.38;2.17;;;;;;;4.20;46.06;101844.19;661983;29;61134;-64
2021/04/26 00:55:27;;;;;;;2.20;2.00;;;;;;;4.20;45.97;101843.31;661862;29;67503;-64
2021/04/26 00:55:48;;;;;;;2.22;1.80;;;;;;;4.21;45.92;101845.03;661981;29;44442;-65
2021/04/26 00:56:10;;;;;;;2.88;1.80;;;;;;;4.19;46.79;101841.63;660337;29;30807;-64
2021/04/26 00:56:31;;;;;;;1.98;1.85;;;;;;;4.14;47.00;101841.94;661357;29;10919;-65
2021/04/26 00:56:59;;;;;;;2.33;2.03;;;;;;;4.15;46.81;101843.63;657903;29;60532;-65
2021/04/26 00:57:20;;;;;;;2.60;2.40;;;;;;;4.16;46.63;101842.69;659496;29;21431;-64
2021/04/26 00:57:42;;;;;;;2.03;1.88;;;;;;;4.13;46.71;101845.56;659760;29;23432;-65
2021/04/26 00:58:03;;;;;;;2.22;1.88;;;;;;;4.09;46.66;101839.59;661227;29;31498;-65
2021/04/26 00:58:25;;;;;;;2.88;2.05;;;;;;;4.08;46.94;101843.22;659145;29;35430;-65
2021/04/26 00:58:46;;;;;;;2.63;2.05;;;;;;;4.09;46.79;101839.59;659846;29;16253;-64
2021/04/26 00:59:08;;;;;;;2.13;1.90;;;;;;;4.10;46.83;101843.13;657560;30;16269;-65
2021/04/26 00:59:30;;;;;;;2.45;2.10;;;;;;;4.10;46.70;101840.44;656070;30;46193;-65
2021/04/26 00:59:51;;;;;;;2.15;2.00;;;;;;;4.09;47.03;101836.03;655111;30;46123;-65
2021/04/26 01:00:14;;;;;;;2.40;2.20;;;;;;;4.08;47.06;101837.88;659250;30;21525;-65
2021/04/26 01:00:37;;;;;;;3.00;2.30;;;;;;;4.10;47.03;101835.94;657008;29;106696;-65
2021/04/26 01:00:59;;;;;;;3.13;2.50;;;;;;;4.06;46.97;101839.81;661537;29;22410;-65
2021/04/26 01:01:20;;;;;;;2.97;2.10;;;;;;;4.07;46.89;101838.81;662470;29;23619;-65
2021/04/26 01:01:42;;;;;;;1.98;1.85;;;;;;;4.06;47.14;101834.47;662035;29;46355;-64
2021/04/26 01:02:04;;;;;;;1.70;1.60;;;;;;;4.04;46.95;101833.69;663825;29;28101;-65
2021/04/26 01:02:25;;;;;;;1.90;1.80;;;;;;;4.05;46.88;101834.56;664713;29;2397;-64
2021/04/26 01:02:47;;;;;;;2.03;1.85;;;;;;;4.05;46.87;101832.75;663498;29;22290;-65
2021/04/26 01:03:08;;;;;;;1.65;1.55;;;;;;;4.06;46.71;101837.13;662194;29;44373;-64
2021/04/26 01:03:30;;;;;;;1.77;1.67;;;;;;;4.08;46.63;101832.53;658654;29;45329;-65
2021/04/26 01:03:52;;;;;;;1.70;1.60;;;;;;;4.08;46.74;101837.03;658176;30;39529;-65
2021/04/26 01:04:13;;;;;;;2.72;1.92;;;;;;;4.06;46.66;101834.47;658985;30;24345;-65
2021/04/26 01:04:35;;;;;;;2.13;1.80;;;;;;;4.07;46.58;101838.81;659550;30;8700;-64
2021/04/26 01:04:56;;;;;;;1.70;1.60;;;;;;;4.09;46.66;101833.38;658601;29;40877;-64
2021/04/26 01:05:20;;;;;;;1.80;1.70;;;;;;;4.08;46.49;101829.84;660874;29;44288;-64
2021/04/26 01:05:42;;;;;;;1.95;1.80;;;;;;;4.10;46.67;101837.75;661617;29;2038;-64
2021/04/26 01:06:03;;;;;;;2.25;1.80;;;;;;;4.08;46.95;101837.03;660864;29;42563;-64
2021/04/26 01:06:24;;;;;;;2.17;1.90;;;;;;;4.07;46.87;101838.81;658392;30;22470;-65
2021/04/26 01:06:46;;;;;;;1.90;1.80;;;;;;;4.05;46.95;101826.56;658351;29;40985;-64
2021/04/26 01:07:08;;;;;;;1.85;1.75;;;;;;;4.03;47.10;101829.31;658132;30;41057;-65
2021/04/26 01:07:34;;;;;;;1.67;1.58;;;;;;;4.05;46.93;101834.56;655619;30;76945;-65
2021/04/26 01:07:56;;;;;;;1.75;1.65;;;;;;;4.03;47.15;101826.66;654626;30;83261;-65
2021/04/26 01:08:24;;;;;;;2.30;1.77;;;;;;;4.06;46.98;101833.59;654548;29;116972;-65
2021/04/26 01:09:04;;;;;;;1.85;1.75;;;;;;;4.05;46.86;101831.91;654959;30;130607;-65
2021/04/26 01:09:32;;;;;;;1.80;1.70;;;;;;;4.06;46.58;101831.78;654176;30;133921;-65
2021/04/26 01:09:59;;;;;;;1.95;1.85;;;;;;;4.08;46.62;101832.53;659657;29;39042;-64
2021/04/26 01:10:23;;;;;;;2.00;1.90;;;;;;;4.07;46.76;101832.63;658568;29;60946;-64
2021/04/26 01:10:45;;;;;;;1.70;1.60;;;;;;;4.08;46.67;101835.19;657994;29;63911;-65
2021/04/26 01:11:06;;;;;;;2.38;1.70;;;;;;;4.08;46.59;101832.53;659312;29;42122;-64
2021/04/26 01:11:33;;;;;;;1.80;1.70;;;;;;;4.06;46.61;101833.59;658135;30;22525;-65
2021/04/26 01:12:10;;;;;;;1.98;1.67;;;;;;;4.01;46.82;101833.06;654829;30;135471;-65
2021/04/26 01:12:37;;;;;;;1.90;1.80;;;;;;;4.01;46.82;101833.91;654745;30;137668;-65
2021/04/26 01:13:26;;;;;;;1.98;1.88;;;;;;;4.00;46.74;101829.53;654996;29;138775;-64
2021/04/26 01:13:59;;;;;;;2.75;1.77;;;;;;;4.01;46.74;101830.38;655728;29;135775;-65
2021/04/26 01:14:26;;;;;;;1.83;1.73;;;;;;;4.02;46.69;101834.78;660514;29;115874;-64
2021/04/26 01:14:55;;;;;;;1.80;1.70;;;;;;;4.02;46.45;101827.59;660527;29;126331;-65
2021/04/26 01:15:24;;;;;;;2.22;1.60;;;;;;;4.04;46.31;101827.50;659887;29;135732;-65
2021/04/26 01:15:51;;;;;;;2.10;1.90;;;;;;;4.02;46.37;101832.97;661013;29;93037;-65
2021/04/26 01:16:17;;;;;;;2.08;1.95;;;;;;;4.01;46.45;101825.88;662164;29;61542;-63
2021/04/26 01:16:43;;;;;;;1.60;1.50;;;;;;;4.00;46.61;101824.19;657872;29;115992;-65
2021/04/26 01:17:10;;;;;;;1.70;1.60;;;;;;;4.02;46.49;101824.94;657429;29;138970;-64
2021/04/26 01:17:33;;;;;;;1.90;1.80;;;;;;;4.00;46.71;101823.31;656571;29;137071;-64
2021/04/26 01:17:58;;;;;;;1.88;1.77;;;;;;;3.99;46.88;101819.81;660833;29;28478;-64
2021/04/26 01:18:24;;;;;;;1.75;1.65;;;;;;;3.97;46.67;101821.75;657975;29;111378;-64
2021/04/26 01:18:53;;;;;;;1.80;1.70;;;;;;;3.98;46.88;101823.44;658353;29;99795;-64
2021/04/26 01:19:35;;;;;;;2.35;1.63;;;;;;;3.99;46.98;101827.81;658010;29;118255;-63
2021/04/26 01:20:33;;;;;;;1.75;1.65;;;;;;;3.99;46.68;101826.97;656978;29;129335;-63
2021/04/26 01:21:31;;;;;;;2.03;1.88;;;;;;;3.95;46.73;101821.84;652071;30;137822;-64
2021/04/26 01:22:21;;;;;;;1.83;1.67;;;;;;;3.96;46.72;101823.53;652193;30;133549;-63
2021/04/26 01:23:24;;;;;;;1.70;1.60;;;;;;;3.93;46.79;101818.44;652637;30;122600;-64
2021/04/26 01:24:11;;;;;;;1.77;1.67;;;;;;;3.94;46.51;101817.44;649776;30;131326;-65
2021/04/26 01:24:45;;;;;;;1.80;1.70;;;;;;;3.95;46.64;101819.16;650220;29;137532;-64
2021/04/26 01:25:09;;;;;;;1.55;1.45;;;;;;;3.97;46.67;101827.09;656937;29;161628;-64
2021/04/26 01:25:33;;;;;;;1.70;1.50;;;;;;;3.97;46.75;101819.91;658949;29;98511;-64
2021/04/26 01:25:55;;;;;;;2.72;1.95;;;;;;;3.95;46.71;101821.00;656062;30;56599;-63
2021/04/26 01:26:29;;;;;;;2.00;1.80;;;;;;;3.93;46.71;101821.09;657590;30;24206;-64
2021/04/26 01:27:05;;;;;;;1.90;1.77;;;;;;;3.91;46.67;101815.00;656042;30;62139;-64
2021/04/26 01:28:05;;;;;;;1.60;1.50;;;;;;;3.89;46.47;101819.59;653817;30;133701;-63
2021/04/26 01:28:33;;;;;;;1.50;1.40;;;;;;;3.88;46.62;101811.69;656093;30;59808;-63
2021/04/26 01:29:03;;;;;;;1.60;1.50;;;;;;;3.85;46.51;101812.75;653593;30;137101;-63
2021/04/26 01:29:36;;;;;;;2.30;1.60;;;;;;;3.89;46.32;101816.94;653980;29;124523;-64
2021/04/26 01:30:13;;;;;;;2.00;1.80;;;;;;;3.87;46.25;101817.97;656446;30;61514;-64
2021/04/26 01:30:57;;;;;;;1.70;1.60;;;;;;;3.85;46.36;101815.41;656512;29;119980;-64
2021/04/26 01:31:51;;;;;;;1.70;1.60;;;;;;;3.84;46.51;101812.84;659771;29;63155;-63
2021/04/26 01:32:22;;;;;;;1.60;1.50;;;;;;;3.85;46.59;101815.41;657778;29;137500;-63
2021/04/26 01:32:47;;;;;;;1.77;1.67;;;;;;;3.86;46.73;101810.94;654708;30;138645;-64
2021/04/26 01:33:16;;;;;;;1.70;1.60;;;;;;;3.85;46.91;101818.09;654870;29;136284;-64
2021/04/26 01:33:46;;;;;;;1.60;1.50;;;;;;;3.86;46.73;101810.94;654485;30;137810;-64
2021/04/26 01:34:08;;;;;;;1.60;1.50;;;;;;;3.86;46.92;101819.81;652353;30;137924;-63
2021/04/26 01:35:06;;;;;;;1.80;1.70;;;;;;;3.86;47.21;101813.63;648619;30;137546;-63
2021/04/26 01:35:31;;;;;;;1.60;1.52;;;;;;;3.84;47.25;101807.50;650539;30;138186;-64
2021/04/26 01:35:53;;;;;;;1.70;1.60;;;;;;;3.83;47.46;101813.84;657259;29;44598;-63
2021/04/26 01:36:16;;;;;;;1.70;1.60;;;;;;;3.84;47.23;101804.84;660301;29;23674;-61
2021/04/26 01:36:45;;;;;;;2.13;1.80;;;;;;;3.83;47.10;101812.00;651102;30;138449;-61
2021/04/26 01:37:06;;;;;;;1.85;1.70;;;;;;;3.83;47.08;101812.00;654662;30;44253;-61
2021/04/26 01:37:31;;;;;;;2.47;1.90;;;;;;;3.79;47.62;101807.81;655312;30;23446;-62
2021/04/26 01:37:56;;;;;;;1.95;1.80;;;;;;;3.77;47.41;101805.25;650103;30;115345;-62
2021/04/26 01:38:20;;;;;;;1.85;1.75;;;;;;;3.79;47.41;101807.81;649767;30;113613;-63
2021/04/26 01:38:44;;;;;;;1.80;1.70;;;;;;;3.76;47.51;101808.03;651949;30;112140;-62
2021/04/26 01:39:06;;;;;;;2.00;1.67;;;;;;;3.76;47.73;101808.91;653866;30;93498;-62
2021/04/26 01:39:28;;;;;;;1.70;1.60;;;;;;;3.75;47.63;101803.69;652598;30;46436;-63
2021/04/26 01:39:51;;;;;;;1.70;1.60;;;;;;;3.75;47.64;101806.34;654858;30;24426;-63
2021/04/26 01:40:13;;;;;;;1.88;1.67;;;;;;;3.75;47.61;101811.69;656859;30;54145;-63
2021/04/26 01:40:36;;;;;;;1.58;1.48;;;;;;;3.74;47.67;101809.97;657291;30;54792;-60
2021/04/26 01:40:58;;;;;;;1.73;1.63;;;;;;;3.73;47.74;101805.56;656963;30;69596;-63
2021/04/26 01:41:20;;;;;;;1.77;1.63;;;;;;;3.69;47.75;101807.63;658790;29;43086;-63
2021/04/26 01:41:43;;;;;;;1.60;1.50;;;;;;;3.71;47.62;101807.50;660432;29;46387;-62
2021/04/26 01:42:06;;;;;;;1.63;1.52;;;;;;;3.72;47.51;101809.22;658740;29;92249;-62
2021/04/26 01:42:28;;;;;;;1.98;1.77;;;;;;;3.69;47.56;101802.28;657354;30;45254;-62
2021/04/26 01:42:52;;;;;;;2.08;1.88;;;;;;;3.66;47.75;101799.81;655110;30;46623;-63
2021/04/26 01:43:16;;;;;;;2.00;1.77;;;;;;;3.68;47.58;101805.88;653774;30;92353;-62
2021/04/26 01:43:39;;;;;;;1.83;1.73;;;;;;;3.66;47.51;101810.50;653966;30;90321;-63
2021/04/26 01:44:02;;;;;;;1.90;1.80;;;;;;;3.62;47.74;101809.00;654579;30;92287;-64
2021/04/26 01:44:24;;;;;;;1.80;1.70;;;;;;;3.58;47.83;101802.16;655640;30;45222;-64
2021/04/26 01:44:45;;;;;;;1.90;1.80;;;;;;;3.60;47.76;101803.78;655268;30;46888;-63
2021/04/26 01:45:09;;;;;;;1.83;1.73;;;;;;;3.61;47.57;101802.78;657167;30;23537;-64
2021/04/26 01:45:31;;;;;;;3.30;1.85;;;;;;;3.60;47.46;101805.56;656816;30;92331;-64
2021/04/26 01:45:54;;;;;;;2.65;1.80;;;;;;;3.58;47.22;101805.69;656919;30;68112;-64
2021/04/26 01:46:17;;;;;;;1.60;1.50;;;;;;;3.56;47.07;101801.41;656785;30;74478;-64
2021/04/26 01:46:41;;;;;;;1.50;1.40;;;;;;;3.57;46.87;101801.31;659382;29;45374;-64
2021/04/26 01:47:04;;;;;;;1.60;1.50;;;;;;;3.57;46.96;101795.09;659607;29;68528;-64
2021/04/26 01:47:26;;;;;;;2.50;1.70;;;;;;;3.57;46.82;101800.44;659318;29;70642;-64
2021/04/26 01:47:50;;;;;;;2.88;1.67;;;;;;;3.54;46.88;101798.84;659139;29;69214;-64
2021/04/26 01:48:12;;;;;;;1.58;1.48;;;;;;;3.55;47.13;101795.19;657328;30;67449;-64
2021/04/26 01:48:39;;;;;;;1.70;1.40;;;;;;;3.56;47.24;101798.75;653458;30;61661;-65
2021/04/26 01:49:02;;;;;;;1.50;1.40;;;;;;;3.56;47.28;101793.41;653165;30;83582;-65
2021/04/26 01:49:24;;;;;;;1.83;1.42;;;;;;;3.57;47.17;101801.31;653697;30;57532;-65
2021/04/26 01:49:47;;;;;;;1.75;1.50;;;;;;;3.58;47.04;101802.16;655518;30;8591;-64
2021/04/26 01:50:10;;;;;;;1.73;1.63;;;;;;;3.58;47.09;101797.66;653240;30;61844;-64
2021/04/26 01:50:31;;;;;;;1.80;1.70;;;;;;;3.63;47.00;101805.38;654492;30;67346;-64
2021/04/26 01:50:53;;;;;;;1.58;1.55;;;;;;;3.64;46.89;101800.88;656024;30;2114;-64
2021/04/26 01:51:16;;;;;;;1.60;1.50;;;;;;;3.64;46.90;101799.06;655013;30;37250;-64
2021/04/26 01:51:38;;;;;;;1.80;1.70;;;;;;;3.64;47.00;101801.75;658009;30;69496;-64
2021/04/26 01:52:00;;;;;;;1.77;1.52;;;;;;;3.66;46.92;101802.47;654629;30;46317;-62
2021/04/26 01:52:21;;;;;;;1.45;1.35;;;;;;;3.67;46.97;101806.00;655436;30;48055;-63
2021/04/26 01:52:43;;;;;;;1.30;1.30;;;;;;;3.64;46.83;101791.06;657716;30;23720;-63
2021/04/26 01:53:05;;;;;;;1.50;1.40;;;;;;;3.63;46.68;101794.69;657175;30;42608;-63
2021/04/26 01:53:27;;;;;;;1.70;1.60;;;;;;;3.67;46.86;101798.84;657574;30;30939;-64
2021/04/26 01:53:49;;;;;;;2.53;1.65;;;;;;;3.69;46.72;101798.75;657491;29;46297;-63
2021/04/26 01:54:10;;;;;;;2.25;1.52;;;;;;;3.67;46.45;101798.84;660001;29;46463;-64